Time;durP1;ratioP1;P1;durP2;ratioP2;P2;SDS_P1;SDS_P2;PMS_P1;PMS_P2;Temp;Humidity;BMP_temperature;BMP_pressure;BME280_temperature;BME280_humidity;BME280_pressure;Samples;Min_cycle;Max_cycle;Signal;HPM_P1;HPM_P2
2021/10/01 04:32:06;;;;;;;5.27;2.77;;;5.40;99.90;;;;;;5294359;23;20509;-78
2021/10/01 04:34:37;;;;;;;3.07;2.20;;;5.40;99.90;;;;;;4952047;28;20552;-77
2021/10/01 04:37:03;;;;;;;2.50;2.40;;;5.40;99.90;;;;;;4942048;29;20428;-78
2021/10/01 04:39:28;;;;;;;4.07;2.50;;;5.30;99.90;;;;;;4951294;29;20504;-77
2021/10/01 04:41:54;;;;;;;3.50;2.20;;;5.30;99.90;;;;;;4951270;28;20475;-78
2021/10/01 04:44:19;;;;;;;7.33;2.33;;;5.20;99.90;;;;;;4951552;29;20192;-78
2021/10/01 04:46:45;;;;;;;3.60;2.40;;;5.20;99.90;;;;;;4952318;29;20581;-79
2021/10/01 04:49:12;;;;;;;8.10;2.87;;;5.20;99.90;;;;;;4951918;29;20189;-76
2021/10/01 04:51:37;;;;;;;2.40;2.20;;;5.20;99.90;;;;;;4951733;28;20768;-77
2021/10/01 04:54:03;;;;;;;4.83;2.60;;;5.10;99.90;;;;;;4951308;29;20519;-78
2021/10/01 04:56:29;;;;;;;4.60;3.00;;;5.10;99.90;;;;;;4951902;29;20201;-78
2021/10/01 04:58:55;;;;;;;2.30;1.97;;;5.10;99.90;;;;;;4952062;29;20181;-78
2021/10/01 05:01:20;;;;;;;3.20;2.90;;;5.10;99.90;;;;;;4953075;28;20197;-76
2021/10/01 05:03:46;;;;;;;3.43;2.07;;;5.20;99.90;;;;;;4954618;29;20505;-79
2021/10/01 05:06:11;;;;;;;2.10;2.00;;;5.20;99.90;;;;;;4954879;29;20197;-76
2021/10/01 05:08:37;;;;;;;3.23;2.60;;;5.20;99.90;;;;;;4952712;29;20182;-76
2021/10/01 05:11:02;;;;;;;2.40;2.00;;;5.20;99.90;;;;;;4952990;28;20207;-76
2021/10/01 05:13:28;;;;;;;3.33;2.73;;;5.10;99.90;;;;;;4953006;28;20612;-75
2021/10/01 05:15:54;;;;;;;5.73;2.50;;;5.10;99.90;;;;;;4953583;29;20216;-76
2021/10/01 05:18:21;;;;;;;9.50;5.47;;;5.10;99.90;;;;;;4952922;29;20188;-75
2021/10/01 05:20:47;;;;;;;5.13;3.77;;;5.10;99.90;;;;;;4953247;28;20599;-75
2021/10/01 05:23:13;;;;;;;3.60;2.87;;;5.10;99.90;;;;;;4953377;29;20418;-74
2021/10/01 05:25:38;;;;;;;7.50;2.93;;;5.10;99.90;;;;;;4951371;29;20203;-77
2021/10/01 05:28:04;;;;;;;3.60;3.30;;;5.20;99.90;;;;;;4951610;29;20186;-77
2021/10/01 05:30:29;;;;;;;4.20;3.77;;;5.20;99.90;;;;;;4952442;28;20209;-77
2021/10/01 05:32:55;;;;;;;6.80;3.97;;;5.20;99.90;;;;;;4951884;29;20231;-76
2021/10/01 05:35:20;;;;;;;7.83;3.67;;;5.30;99.90;;;;;;4951027;29;20623;-78
2021/10/01 05:37:46;;;;;;;6.13;3.13;;;5.30;99.90;;;;;;4949946;29;20213;-77
2021/10/01 05:40:12;;;;;;;6.60;3.40;;;5.40;99.90;;;;;;4950894;29;20206;-78
2021/10/01 05:42:38;;;;;;;6.80;3.20;;;5.40;99.90;;;;;;4952233;28;20267;-79
2021/10/01 05:45:06;;;;;;;4.77;3.10;;;5.50;99.90;;;;;;4952377;29;20424;-78
2021/10/01 05:47:31;;;;;;;6.60;2.70;;;5.60;99.90;;;;;;4951340;28;20192;-78
2021/10/01 05:50:01;;;;;;;3.37;3.07;;;5.80;99.90;;;;;;4952055;28;20419;-77
2021/10/01 05:54:58;;;;;;;5.23;2.50;;;6.10;99.90;;;;;;4952030;29;21375;-78
2021/10/01 05:57:24;;;;;;;6.30;3.40;;;6.40;99.90;;;;;;4951785;29;20504;-77
2021/10/01 05:59:50;;;;;;;3.27;2.63;;;6.80;99.90;;;;;;4952107;29;20187;-77
2021/10/01 06:02:19;;;;;;;7.87;3.00;;;7.40;99.90;;;;;;4950239;28;20203;-77
2021/10/01 06:04:46;;;;;;;6.43;2.57;;;8.20;99.90;;;;;;4952192;28;20186;-77
2021/10/01 06:07:12;;;;;;;10.27;5.63;;;9.00;99.90;;;;;;4951679;28;20799;-77
2021/10/01 06:09:40;;;;;;;19.30;8.90;;;9.60;99.90;;;;;;4951886;29;20423;-78
2021/10/01 06:12:07;;;;;;;5.90;5.10;;;10.10;99.90;;;;;;4951706;28;20447;-77
2021/10/01 06:14:33;;;;;;;5.20;3.57;;;10.50;99.90;;;;;;4951843;28;20428;-76
2021/10/01 06:16:58;;;;;;;5.83;3.37;;;11.00;99.90;;;;;;4951305;29;20451;-77
2021/10/01 06:19:24;;;;;;;7.70;3.60;;;11.60;99.90;;;;;;4951519;29;20721;-79
2021/10/01 06:21:51;;;;;;;6.40;3.60;;;12.10;99.90;;;;;;4951967;28;20189;-77
2021/10/01 06:24:18;;;;;;;7.83;2.70;;;12.40;99.90;;;;;;4953195;28;20179;-77
2021/10/01 06:26:43;;;;;;;5.90;4.40;;;12.60;99.90;;;;;;4954725;28;20424;-76
2021/10/01 06:29:09;;;;;;;6.30;3.17;;;13.00;99.90;;;;;;4955635;29;20412;-78
2021/10/01 06:31:35;;;;;;;10.03;3.97;;;13.50;99.90;;;;;;4955628;28;20212;-77
2021/10/01 06:34:00;;;;;;;7.40;3.70;;;13.90;99.90;;;;;;4955600;28;20259;-78
2021/10/01 06:36:26;;;;;;;5.13;3.43;;;14.30;99.90;;;;;;4955169;28;20288;-78
2021/10/01 06:38:53;;;;;;;6.23;3.23;;;14.40;99.90;;;;;;4956337;29;20642;-75
2021/10/01 06:41:19;;;;;;;6.07;2.97;;;14.70;99.90;;;;;;4952806;28;20312;-77
2021/10/01 06:43:45;;;;;;;5.23;2.80;;;15.70;99.90;;;;;;4954903;28;20423;-77
2021/10/01 06:46:57;;;;;;;4.87;2.80;;;16.60;99.90;;;;;;4953843;28;20893;-79
2021/10/01 08:21:06;;;;;;;8.67;1.97;;;19.30;99.90;;;;;;4952265;29;20455;-77
2021/10/01 08:23:32;;;;;;;3.57;1.30;;;19.00;99.90;;;;;;4935283;29;20417;-77
2021/10/01 08:25:58;;;;;;;1.83;1.47;;;19.10;99.90;;;;;;4938264;29;20181;-77
2021/10/01 08:28:23;;;;;;;1.53;1.40;;;19.30;99.90;;;;;;4944463;29;20433;-77
2021/10/01 08:30:49;;;;;;;2.10;0.90;;;19.70;99.90;;;;;;4940894;29;20475;-76
2021/10/01 08:33:15;;;;;;;3.70;1.30;;;19.50;99.90;;;;;;4935891;29;20203;-79
2021/10/01 08:35:41;;;;;;;3.97;1.40;;;19.10;99.90;;;;;;4939087;29;20228;-77
2021/10/01 08:38:06;;;;;;;2.13;1.00;;;19.30;99.90;;;;;;4930074;29;20185;-78
2021/10/01 08:40:32;;;;;;;1.43;1.30;;;19.30;99.90;;;;;;4934260;29;20551;-76
2021/10/01 08:42:58;;;;;;;2.10;1.17;;;19.00;99.90;;;;;;4933808;29;20262;-77
2021/10/01 08:45:25;;;;;;;2.80;1.40;;;19.10;99.90;;;;;;4935190;29;20185;-76
2021/10/01 08:47:51;;;;;;;1.90;1.17;;;19.30;99.90;;;;;;4935812;29;20428;-78
2021/10/01 08:50:20;;;;;;;2.83;0.93;;;19.50;99.90;;;;;;4937137;29;20425;-77
2021/10/01 08:52:47;;;;;;;2.70;1.10;;;19.50;99.90;;;;;;4937921;29;20437;-76
2021/10/01 08:55:14;;;;;;;1.80;1.40;;;20.10;99.90;;;;;;4935586;29;20476;-76
2021/10/01 08:57:40;;;;;;;4.10;2.63;;;20.10;99.90;;;;;;4933990;29;20582;-77
2021/10/01 09:00:09;;;;;;;2.20;1.80;;;20.30;99.90;;;;;;4937420;29;20517;-76
2021/10/01 09:02:36;;;;;;;5.00;1.63;;;20.70;99.90;;;;;;4936550;29;20261;-76
2021/10/01 09:05:03;;;;;;;1.40;1.03;;;20.90;99.90;;;;;;4936331;29;21177;-79
2021/10/01 09:07:29;;;;;;;1.63;1.40;;;21.00;99.90;;;;;;4936149;29;20429;-76
2021/10/01 09:09:55;;;;;;;3.27;1.73;;;20.90;99.90;;;;;;4934582;29;20425;-78
2021/10/01 09:12:23;;;;;;;2.33;1.20;;;21.20;99.90;;;;;;4935078;29;20233;-78
2021/10/01 09:14:52;;;;;;;2.80;0.90;;;21.10;99.90;;;;;;4932307;29;20473;-76
2021/10/01 09:17:21;;;;;;;5.80;1.63;;;21.40;99.90;;;;;;4934937;29;20445;-76
2021/10/01 09:19:48;;;;;;;1.63;0.90;;;21.50;99.90;;;;;;4934406;29;20416;-78
2021/10/01 09:22:38;;;;;;;2.67;1.63;;;21.60;99.90;;;;;;4932873;29;20441;-77
2021/10/01 09:25:16;;;;;;;3.60;0.90;;;22.00;99.90;;;;;;4936052;29;20444;-77
2021/10/01 09:27:43;;;;;;;2.20;1.20;;;22.20;99.90;;;;;;4935514;29;20425;-78
2021/10/01 09:30:11;;;;;;;7.33;1.63;;;21.90;99.90;;;;;;4935891;29;20465;-77
2021/10/01 09:32:38;;;;;;;2.70;1.50;;;22.20;99.90;;;;;;4934254;29;21014;-77
2021/10/01 09:35:11;;;;;;;1.57;1.10;;;22.10;99.90;;;;;;4936232;29;20500;-77
2021/10/01 09:37:37;;;;;;;3.03;1.13;;;22.30;99.90;;;;;;4932748;29;20821;-74
2021/10/01 09:40:04;;;;;;;3.43;0.90;;;22.40;99.90;;;;;;4933709;29;20425;-74
2021/10/01 09:42:54;;;;;;;4.50;1.10;;;22.10;99.90;;;;;;4933225;29;20186;-78
2021/10/01 09:45:20;;;;;;;6.33;1.17;;;22.40;99.90;;;;;;4935242;29;20429;-74
2021/10/01 09:47:48;;;;;;;2.60;1.03;;;22.90;99.90;;;;;;4933737;29;20445;-75
2021/10/01 09:50:26;;;;;;;3.80;0.90;;;22.80;99.90;;;;;;4933544;29;20413;-75
2021/10/01 09:52:58;;;;;;;2.70;1.20;;;23.10;99.90;;;;;;4933443;29;20769;-74
2021/10/01 09:55:46;;;;;;;8.33;1.13;;;23.20;99.90;;;;;;4933528;29;20560;-76
2021/10/01 09:58:16;;;;;;;1.63;0.80;;;23.40;99.90;;;;;;4934856;29;20452;-74
2021/10/01 10:00:46;;;;;;;7.53;2.20;;;23.40;99.90;;;;;;4938747;29;20417;-75
2021/10/01 10:03:29;;;;;;;3.40;1.80;;;22.90;99.90;;;;;;4937727;29;20439;-76
2021/10/01 10:05:59;;;;;;;3.53;1.37;;;23.00;99.90;;;;;;4938589;29;20431;-75
2021/10/01 10:08:31;;;;;;;4.63;1.67;;;23.20;99.90;;;;;;4935444;29;20429;-73
2021/10/01 10:11:01;;;;;;;3.73;2.20;;;23.30;99.90;;;;;;4937903;29;20447;-74
2021/10/01 10:13:43;;;;;;;4.10;1.70;;;23.10;99.90;;;;;;4937608;29;20447;-75
2021/10/01 10:16:12;;;;;;;2.83;1.70;;;23.20;99.90;;;;;;4937638;29;20882;-73
2021/10/01 10:18:39;;;;;;;3.60;2.27;;;23.40;99.90;;;;;;4941901;29;20456;-73
2021/10/01 10:21:04;;;;;;;4.10;1.70;;;23.70;99.90;;;;;;4935304;29;20453;-74
2021/10/01 10:23:30;;;;;;;7.93;1.63;;;23.80;99.90;;;;;;4934250;29;20421;-73
2021/10/01 10:25:56;;;;;;;3.23;0.90;;;23.50;99.90;;;;;;4933181;29;20192;-72
2021/10/01 10:28:21;;;;;;;2.03;1.00;;;23.50;99.90;;;;;;4941173;29;20282;-76
2021/10/01 10:30:51;;;;;;;4.50;1.30;;;23.50;99.90;;;;;;4947040;29;20261;-76
2021/10/01 10:33:35;;;;;;;5.60;1.47;;;23.40;99.90;;;;;;4941315;29;20174;-75
2021/10/01 10:36:01;;;;;;;1.90;1.10;;;23.70;99.90;;;;;;4936371;29;20465;-76
2021/10/01 10:38:32;;;;;;;3.43;0.77;;;23.70;99.90;;;;;;4934855;29;20436;-75
2021/10/01 10:41:28;;;;;;;3.80;1.10;;;23.50;99.90;;;;;;4936468;29;20201;-75
2021/10/01 10:43:55;;;;;;;1.33;0.70;;;23.30;99.90;;;;;;4935996;29;20582;-75
2021/10/01 10:46:35;;;;;;;1.40;1.00;;;23.50;99.90;;;;;;4936469;29;20448;-75
2021/10/01 10:49:21;;;;;;;1.93;0.60;;;23.30;99.90;;;;;;4936430;29;20483;-75
2021/10/01 10:52:07;;;;;;;1.00;0.90;;;23.40;99.90;;;;;;4937624;29;20428;-75
2021/10/01 10:54:36;;;;;;;0.70;0.70;;;23.40;99.90;;;;;;4937271;29;20436;-75
2021/10/01 10:57:32;;;;;;;1.13;0.70;;;23.20;99.90;;;;;;4936241;29;20472;-76
2021/10/01 11:00:03;;;;;;;2.07;0.80;;;23.60;99.90;;;;;;4920941;29;20432;-75
2021/10/01 11:02:41;;;;;;;0.83;0.60;;;23.90;99.90;;;;;;4936270;29;20464;-76
2021/10/01 11:05:26;;;;;;;0.80;0.80;;;24.00;99.90;;;;;;4936128;29;20975;-75
2021/10/01 11:07:53;;;;;;;2.63;0.63;;;23.80;99.90;;;;;;4933865;29;20433;-74
2021/10/01 11:10:38;;;;;;;5.37;0.90;;;23.60;99.90;;;;;;4934896;29;20452;-76
2021/10/01 11:13:21;;;;;;;3.17;0.77;;;23.70;99.90;;;;;;4936235;29;20417;-75
2021/10/01 11:16:11;;;;;;;1.83;0.60;;;23.90;99.90;;;;;;4936440;29;20460;-76
2021/10/01 11:19:04;;;;;;;2.70;0.80;;;23.90;99.90;;;;;;4935534;29;20404;-75
2021/10/01 11:21:33;;;;;;;1.83;0.70;;;24.00;99.90;;;;;;4935855;29;20472;-76
2021/10/01 11:24:18;;;;;;;0.97;0.60;;;24.10;99.90;;;;;;4935566;29;20409;-76
2021/10/01 11:26:51;;;;;;;1.30;0.70;;;24.20;99.90;;;;;;4935926;29;20974;-75
2021/10/01 11:29:20;;;;;;;1.20;0.77;;;24.00;99.90;;;;;;4935911;29;20425;-75
2021/10/01 11:31:45;;;;;;;3.40;1.13;;;23.70;99.90;;;;;;4935415;29;20540;-75
2021/10/01 11:34:11;;;;;;;2.70;0.77;;;23.80;99.90;;;;;;4934908;29;20468;-75
2021/10/01 11:36:39;;;;;;;2.07;0.70;;;23.60;99.90;;;;;;4936232;29;20213;-75
2021/10/01 11:39:14;;;;;;;2.00;0.83;;;23.80;99.90;;;;;;4936174;29;20300;-76
2021/10/01 11:41:46;;;;;;;1.00;0.60;;;23.90;99.90;;;;;;4936011;29;20432;-75
2021/10/01 11:44:14;;;;;;;2.97;0.70;;;23.70;99.90;;;;;;4935598;29;20427;-75
2021/10/01 11:46:46;;;;;;;1.23;0.70;;;23.70;99.90;;;;;;4939903;29;20432;-79
2021/10/01 11:49:30;;;;;;;2.00;0.73;;;23.90;99.90;;;;;;4932355;29;20425;-75
2021/10/01 11:52:01;;;;;;;0.90;0.80;;;23.50;99.90;;;;;;4944634;29;20451;-76
2021/10/01 11:54:27;;;;;;;1.23;0.80;;;23.20;99.90;;;;;;4934217;29;20516;-76
2021/10/01 11:56:57;;;;;;;1.33;0.60;;;23.30;99.90;;;;;;4942196;29;20465;-74
2021/10/01 11:59:25;;;;;;;1.60;0.70;;;23.30;99.90;;;;;;4945293;28;20427;-74
2021/10/01 12:01:55;;;;;;;2.00;0.90;;;23.40;99.90;;;;;;4948941;29;20994;-76
2021/10/01 12:04:29;;;;;;;0.90;0.60;;;23.40;99.90;;;;;;4955071;28;20416;-74
2021/10/01 12:07:04;;;;;;;1.37;0.87;;;23.40;99.90;;;;;;4954120;28;20427;-75
2021/10/01 12:09:30;;;;;;;1.63;0.70;;;23.40;99.90;;;;;;4952500;28;20420;-76
2021/10/01 12:12:03;;;;;;;3.07;0.70;;;23.10;99.90;;;;;;4947222;29;20448;-76
2021/10/01 12:14:28;;;;;;;1.00;0.80;;;23.10;99.90;;;;;;4953024;29;20184;-75
2021/10/01 12:17:00;;;;;;;1.97;0.60;;;22.90;99.90;;;;;;4953003;29;20474;-77
2021/10/01 12:19:27;;;;;;;0.60;0.60;;;23.10;99.90;;;;;;4954439;29;20180;-76
2021/10/01 12:22:11;;;;;;;1.07;0.70;;;23.00;99.90;;;;;;4953566;28;21046;-74
2021/10/01 12:24:49;;;;;;;1.17;0.50;;;23.00;99.90;;;;;;4954145;29;20409;-76
2021/10/01 12:27:17;;;;;;;1.00;0.80;;;23.00;99.90;;;;;;4953209;29;20420;-74
2021/10/01 12:29:46;;;;;;;1.17;0.80;;;23.10;99.90;;;;;;4953977;29;20419;-75
2021/10/01 12:32:12;;;;;;;0.87;0.60;;;23.20;99.90;;;;;;4953826;29;20451;-75
2021/10/01 12:34:48;;;;;;;2.00;0.70;;;23.10;99.90;;;;;;4953728;29;20420;-76
2021/10/01 12:37:18;;;;;;;1.13;0.73;;;23.10;99.90;;;;;;4953679;29;20423;-76
2021/10/01 12:39:48;;;;;;;0.70;0.70;;;22.90;99.90;;;;;;4955353;29;20413;-74
2021/10/01 12:42:19;;;;;;;2.30;0.90;;;22.90;99.90;;;;;;4955204;29;20479;-74
2021/10/01 12:45:04;;;;;;;1.43;0.60;;;22.90;99.90;;;;;;4955326;28;20404;-75
2021/10/01 12:47:33;;;;;;;1.57;0.80;;;22.90;99.90;;;;;;4954821;29;20404;-74
2021/10/01 12:50:18;;;;;;;1.67;0.70;;;22.80;99.90;;;;;;4953819;29;20408;-76
2021/10/01 12:52:53;;;;;;;2.30;0.77;;;22.80;99.90;;;;;;4955112;29;20800;-74
2021/10/01 12:55:21;;;;;;;3.20;0.80;;;22.80;99.90;;;;;;4955264;29;20507;-75
2021/10/01 12:57:49;;;;;;;4.53;0.80;;;22.60;99.90;;;;;;4954581;29;20512;-74
2021/10/01 13:00:20;;;;;;;1.03;0.70;;;22.50;99.90;;;;;;4954882;29;20784;-75
2021/10/01 13:03:00;;;;;;;1.67;1.10;;;22.40;99.90;;;;;;4954744;29;20437;-77
2021/10/01 13:05:29;;;;;;;4.63;0.90;;;22.40;99.90;;;;;;4954017;29;20944;-78
2021/10/01 13:07:57;;;;;;;1.00;0.90;;;22.40;99.90;;;;;;4952990;29;20452;-77
2021/10/01 13:10:50;;;;;;;0.80;0.80;;;22.40;99.60;;;;;;4953774;29;20428;-77
2021/10/01 13:13:21;;;;;;;1.43;0.80;;;22.30;99.90;;;;;;4946125;28;20880;-76
2021/10/01 13:15:48;;;;;;;1.00;0.60;;;22.40;99.90;;;;;;4953524;29;20460;-77
2021/10/01 13:18:20;;;;;;;0.60;0.60;;;22.40;99.90;;;;;;4953334;29;20503;-76
2021/10/01 13:21:12;;;;;;;0.80;0.50;;;22.50;99.90;;;;;;4952752;29;20444;-77
2021/10/01 13:23:42;;;;;;;4.73;0.87;;;22.40;99.90;;;;;;4952732;29;20467;-77
2021/10/01 13:26:12;;;;;;;1.10;0.80;;;22.30;99.90;;;;;;4951939;29;20416;-78
2021/10/01 13:28:41;;;;;;;3.43;0.60;;;22.20;99.90;;;;;;4952769;29;20419;-77
2021/10/01 13:31:07;;;;;;;2.23;0.90;;;22.20;99.90;;;;;;4953341;29;20960;-77
2021/10/01 13:33:32;;;;;;;1.17;1.10;;;22.10;99.90;;;;;;4952509;28;20408;-77
2021/10/01 13:35:58;;;;;;;1.10;0.90;;;22.30;99.90;;;;;;4953655;29;20463;-78
2021/10/01 13:38:26;;;;;;;3.03;1.13;;;22.30;99.90;;;;;;4953393;28;20208;-77
2021/10/01 13:40:52;;;;;;;1.83;1.03;;;22.30;99.90;;;;;;4953617;29;21011;-77
2021/10/01 13:43:17;;;;;;;1.20;1.10;;;22.40;99.90;;;;;;4953350;29;20420;-77
2021/10/01 13:45:44;;;;;;;1.33;1.13;;;22.40;99.90;;;;;;4951891;29;20184;-77
2021/10/01 13:48:10;;;;;;;1.77;0.90;;;22.30;99.90;;;;;;4952838;29;20180;-77
2021/10/01 13:50:36;;;;;;;2.40;1.07;;;22.20;99.90;;;;;;4953519;29;20419;-76
2021/10/01 13:53:02;;;;;;;2.07;1.23;;;22.20;99.90;;;;;;4953441;29;20421;-77
2021/10/01 13:55:27;;;;;;;2.10;1.00;;;22.10;99.90;;;;;;4953363;29;20564;-77
2021/10/01 13:57:53;;;;;;;1.90;1.23;;;22.10;99.90;;;;;;4953015;29;20185;-75
2021/10/01 14:00:20;;;;;;;2.43;1.30;;;22.00;99.90;;;;;;4952946;29;20256;-77
2021/10/01 14:02:46;;;;;;;2.90;1.30;;;22.00;99.90;;;;;;4952979;29;20279;-76
2021/10/01 14:05:14;;;;;;;1.80;1.30;;;22.00;99.90;;;;;;4953313;29;20448;-75
2021/10/01 14:07:40;;;;;;;1.23;1.10;;;22.00;99.90;;;;;;4952289;29;21083;-76
2021/10/01 14:10:10;;;;;;;2.10;1.30;;;21.90;99.90;;;;;;4951284;29;20417;-77
2021/10/01 14:12:35;;;;;;;4.00;0.97;;;21.90;99.90;;;;;;4952536;29;20875;-77
2021/10/01 14:15:01;;;;;;;1.43;1.33;;;21.90;99.90;;;;;;4949790;29;20460;-77
2021/10/01 14:17:27;;;;;;;2.03;1.40;;;21.90;99.90;;;;;;4952391;28;20517;-77
2021/10/01 14:19:52;;;;;;;1.83;1.70;;;21.80;99.90;;;;;;4952189;29;20248;-76
2021/10/01 14:22:19;;;;;;;1.70;1.30;;;21.90;99.90;;;;;;4949786;29;20733;-77
2021/10/01 14:24:45;;;;;;;2.30;1.73;;;21.90;99.90;;;;;;4940875;28;20621;-77
2021/10/01 14:27:10;;;;;;;2.57;2.00;;;21.80;99.90;;;;;;4933736;29;20521;-75
2021/10/01 14:29:36;;;;;;;1.80;1.43;;;21.90;99.90;;;;;;4933573;29;20205;-77
2021/10/01 14:32:03;;;;;;;5.00;1.90;;;21.90;99.90;;;;;;4934124;29;20213;-78
2021/10/01 14:34:28;;;;;;;5.53;1.50;;;21.90;99.90;;;;;;4933233;29;20229;-78
2021/10/01 14:36:54;;;;;;;3.03;1.73;;;21.90;99.90;;;;;;4933102;29;20468;-77
2021/10/01 14:39:20;;;;;;;2.50;1.77;;;22.00;99.90;;;;;;4932870;29;20173;-78
2021/10/01 14:41:46;;;;;;;2.47;2.13;;;22.00;99.90;;;;;;4932949;29;20197;-77
2021/10/01 14:44:12;;;;;;;9.73;2.03;;;22.00;99.90;;;;;;4933164;29;20421;-75
2021/10/01 14:46:38;;;;;;;2.80;1.53;;;22.10;99.90;;;;;;4937651;29;20189;-77
2021/10/01 14:49:05;;;;;;;2.83;2.40;;;22.00;99.90;;;;;;4948369;29;20423;-76
2021/10/01 14:51:30;;;;;;;2.17;1.97;;;22.00;99.90;;;;;;4952970;28;20895;-77
2021/10/01 14:53:56;;;;;;;2.00;1.90;;;22.00;99.90;;;;;;4952993;29;20863;-76
2021/10/01 14:56:22;;;;;;;3.03;2.43;;;22.00;99.90;;;;;;4948495;29;20276;-77
2021/10/01 14:58:48;;;;;;;2.73;2.53;;;22.00;99.90;;;;;;4945895;29;20841;-77
2021/10/01 15:01:13;;;;;;;3.67;2.53;;;22.00;99.90;;;;;;4943994;29;20433;-77
2021/10/01 15:03:39;;;;;;;3.40;2.50;;;21.90;99.90;;;;;;4945605;29;20252;-78
2021/10/01 15:06:05;;;;;;;2.80;2.33;;;21.90;99.90;;;;;;4946680;29;20186;-77
2021/10/01 15:08:30;;;;;;;2.40;2.10;;;21.90;99.90;;;;;;4943310;29;20185;-76
2021/10/01 15:10:57;;;;;;;2.37;2.27;;;21.90;99.90;;;;;;4946356;29;20228;-78
2021/10/01 15:13:23;;;;;;;3.23;2.93;;;21.80;99.90;;;;;;4942369;29;20180;-77
2021/10/01 15:15:48;;;;;;;5.30;2.67;;;21.80;99.90;;;;;;4943524;29;21105;-78
2021/10/01 15:18:14;;;;;;;1.90;1.70;;;21.70;99.90;;;;;;4935133;29;20549;-77
2021/10/01 15:20:41;;;;;;;4.03;2.90;;;21.60;99.90;;;;;;4935808;29;20256;-76
2021/10/01 15:23:08;;;;;;;2.67;2.47;;;21.60;99.90;;;;;;4935605;29;20410;-76
2021/10/01 15:25:34;;;;;;;2.80;2.50;;;21.50;99.90;;;;;;4938402;29;20435;-77
2021/10/01 15:28:00;;;;;;;2.60;2.27;;;21.50;99.90;;;;;;4954072;28;20438;-77
2021/10/01 15:30:25;;;;;;;3.13;2.93;;;21.50;99.90;;;;;;4954735;29;20423;-78
2021/10/01 15:32:51;;;;;;;5.43;2.53;;;21.40;99.90;;;;;;4954493;29;20212;-77
2021/10/01 15:35:20;;;;;;;3.73;2.70;;;21.40;99.90;;;;;;4952426;29;20212;-77
2021/10/01 15:37:50;;;;;;;4.40;2.47;;;21.40;99.90;;;;;;4954082;28;20220;-77
2021/10/01 15:40:16;;;;;;;2.73;2.53;;;21.30;99.90;;;;;;4954846;28;20790;-77
2021/10/01 15:42:42;;;;;;;4.70;3.30;;;21.30;99.90;;;;;;4953413;29;20433;-77
2021/10/01 15:45:09;;;;;;;4.27;2.60;;;21.20;99.90;;;;;;4954683;29;20427;-78
2021/10/01 15:47:35;;;;;;;8.30;2.50;;;21.20;99.90;;;;;;4953562;28;20507;-78
2021/10/01 15:50:00;;;;;;;5.80;2.60;;;21.10;99.90;;;;;;4954638;28;20519;-77
2021/10/01 15:52:26;;;;;;;3.00;2.63;;;21.10;99.90;;;;;;4954615;28;20447;-78
2021/10/01 15:54:52;;;;;;;4.90;3.03;;;21.00;99.90;;;;;;4954363;29;20181;-76
2021/10/01 15:57:18;;;;;;;5.70;5.10;;;21.00;99.90;;;;;;4953997;28;20251;-78
2021/10/01 15:59:43;;;;;;;4.10;3.77;;;21.00;99.90;;;;;;4953352;28;20177;-77
2021/10/01 16:02:09;;;;;;;3.10;2.80;;;20.90;99.90;;;;;;4953038;29;20204;-75
2021/10/01 16:04:34;;;;;;;4.30;3.03;;;20.80;99.90;;;;;;4953654;29;20173;-76
2021/10/01 16:07:00;;;;;;;2.73;2.53;;;20.70;99.90;;;;;;4954394;29;20188;-78
2021/10/01 16:09:29;;;;;;;3.67;2.60;;;20.60;99.90;;;;;;4953603;29;20180;-78
2021/10/01 16:11:55;;;;;;;3.27;2.60;;;20.50;99.90;;;;;;4953699;28;20749;-77
2021/10/01 16:14:21;;;;;;;5.83;2.47;;;20.30;99.90;;;;;;4953936;28;20422;-79
2021/10/01 16:16:46;;;;;;;3.40;1.80;;;20.20;99.90;;;;;;4953697;29;20464;-76
2021/10/01 16:19:12;;;;;;;2.17;1.73;;;20.20;99.90;;;;;;4953114;29;20169;-76
2021/10/01 16:21:37;;;;;;;3.70;1.53;;;20.00;99.90;;;;;;4953676;29;20247;-76
2021/10/01 16:24:03;;;;;;;7.23;1.20;;;19.80;99.90;;;;;;4954130;29;20720;-77
2021/10/01 16:26:29;;;;;;;3.80;1.43;;;19.70;99.90;;;;;;4953506;28;20215;-77
2021/10/01 16:28:54;;;;;;;3.87;2.00;;;19.60;99.90;;;;;;4953058;29;20185;-77
2021/10/01 16:31:20;;;;;;;3.10;1.33;;;19.50;99.90;;;;;;4953751;29;20275;-78
2021/10/01 16:33:46;;;;;;;2.30;1.20;;;19.40;99.90;;;;;;4953468;29;20187;-78
2021/10/01 16:36:11;;;;;;;2.07;1.23;;;19.30;99.90;;;;;;4953538;29;20678;-75
2021/10/01 16:38:37;;;;;;;4.00;3.60;;;19.20;99.90;;;;;;4951235;29;20181;-77
2021/10/01 16:41:02;;;;;;;5.03;1.97;;;19.10;99.90;;;;;;4944601;29;20696;-76
2021/10/01 16:43:28;;;;;;;5.93;1.80;;;18.90;99.90;;;;;;4949703;29;20555;-77
2021/10/01 16:45:54;;;;;;;5.13;1.97;;;18.80;99.90;;;;;;4936547;29;20185;-77
2021/10/01 16:48:19;;;;;;;3.23;1.83;;;18.60;99.90;;;;;;4934506;29;20181;-76
2021/10/01 16:50:45;;;;;;;5.27;2.53;;;18.50;99.90;;;;;;4934760;29;20607;-77
2021/10/01 16:53:11;;;;;;;1.70;1.50;;;18.30;99.90;;;;;;4934510;29;20181;-78
2021/10/01 16:55:36;;;;;;;5.30;2.13;;;18.20;99.90;;;;;;4934991;29;20201;-77
2021/10/01 16:58:02;;;;;;;3.37;1.80;;;18.00;99.90;;;;;;4933821;29;20205;-77
2021/10/01 17:00:32;;;;;;;12.33;3.93;;;17.80;99.90;;;;;;4934158;29;20686;-76
2021/10/01 17:02:59;;;;;;;12.73;4.33;;;17.70;99.90;;;;;;4947455;29;20189;-76
2021/10/01 17:05:27;;;;;;;6.13;3.83;;;17.50;99.90;;;;;;4936914;28;20424;-76
2021/10/01 17:07:53;;;;;;;3.20;2.63;;;17.30;99.90;;;;;;4933063;29;20488;-75
2021/10/01 17:10:19;;;;;;;3.27;1.70;;;17.10;99.90;;;;;;4933442;29;20524;-73
2021/10/01 17:12:45;;;;;;;4.87;2.20;;;16.90;99.90;;;;;;4933082;29;20527;-76
2021/10/01 17:15:11;;;;;;;4.80;2.13;;;16.70;99.90;;;;;;4933872;29;20219;-77
2021/10/01 17:17:37;;;;;;;5.70;2.27;;;16.60;99.90;;;;;;4933286;29;20428;-75
2021/10/01 17:20:04;;;;;;;7.10;2.17;;;16.40;99.90;;;;;;4934444;29;20170;-77
2021/10/01 17:22:30;;;;;;;4.77;1.57;;;16.30;99.90;;;;;;4934156;29;21137;-76
2021/10/01 17:24:56;;;;;;;3.50;1.83;;;16.20;99.90;;;;;;4933631;29;20504;-77
2021/10/01 17:27:23;;;;;;;5.10;1.67;;;16.10;99.90;;;;;;4933969;29;20177;-76
2021/10/01 17:29:48;;;;;;;3.07;2.13;;;16.00;99.90;;;;;;4932767;29;20417;-75
2021/10/01 17:32:14;;;;;;;5.13;1.80;;;15.90;99.90;;;;;;4932598;29;20456;-76
2021/10/01 17:34:40;;;;;;;15.63;2.43;;;15.80;99.90;;;;;;4933401;29;20224;-76
2021/10/01 17:37:06;;;;;;;2.47;1.90;;;15.60;99.90;;;;;;4934091;29;20205;-75
2021/10/01 17:39:32;;;;;;;3.23;1.83;;;15.50;99.90;;;;;;4932486;29;20812;-76
2021/10/01 17:41:58;;;;;;;4.43;1.73;;;15.40;99.90;;;;;;4933621;29;20224;-75
2021/10/01 17:44:26;;;;;;;4.07;2.17;;;15.30;99.90;;;;;;4932967;29;20911;-74
2021/10/01 17:46:54;;;;;;;3.77;2.23;;;15.20;99.90;;;;;;4934288;29;20229;-72
2021/10/01 17:49:20;;;;;;;3.30;1.83;;;15.00;99.90;;;;;;4933545;29;20507;-75
2021/10/01 17:51:46;;;;;;;3.93;2.00;;;15.00;99.90;;;;;;4934947;29;20536;-76
2021/10/01 17:54:14;;;;;;;5.27;2.30;;;14.90;99.90;;;;;;4934764;29;20209;-74
2021/10/01 17:56:39;;;;;;;8.70;3.87;;;14.80;99.90;;;;;;4934116;29;20208;-74
2021/10/01 17:59:05;;;;;;;9.93;3.10;;;14.60;99.90;;;;;;4934138;29;20484;-72
2021/10/01 18:01:30;;;;;;;7.73;2.80;;;14.50;99.90;;;;;;4932423;29;20204;-75
2021/10/01 18:03:58;;;;;;;4.17;1.93;;;14.40;99.90;;;;;;4933699;29;20235;-76
2021/10/01 18:06:24;;;;;;;11.57;2.67;;;14.40;99.90;;;;;;4932916;29;20183;-75
2021/10/01 18:08:49;;;;;;;4.50;2.00;;;14.20;99.90;;;;;;4932745;29;20929;-75
2021/10/01 18:11:15;;;;;;;8.43;2.10;;;14.10;99.90;;;;;;4933151;29;20197;-75
2021/10/01 18:13:41;;;;;;;10.90;3.10;;;14.00;99.90;;;;;;4932748;29;20261;-74
2021/10/01 18:16:06;;;;;;;2.90;2.37;;;14.00;99.90;;;;;;4933567;29;20205;-75
2021/10/01 18:18:32;;;;;;;6.10;3.33;;;13.90;99.90;;;;;;4932445;29;20174;-75
2021/10/01 18:20:57;;;;;;;3.93;2.30;;;13.80;99.90;;;;;;4935607;29;20503;-76
2021/10/01 18:23:24;;;;;;;8.47;2.47;;;13.80;99.90;;;;;;4935825;29;20212;-73
2021/10/01 18:25:50;;;;;;;5.17;2.00;;;13.70;99.90;;;;;;4936776;29;20212;-75
2021/10/01 18:28:15;;;;;;;6.00;2.40;;;13.70;99.90;;;;;;4935968;29;20417;-75
2021/10/01 18:30:41;;;;;;;4.40;2.40;;;13.60;99.90;;;;;;4936347;29;20178;-76
2021/10/01 18:33:07;;;;;;;3.00;2.23;;;13.50;99.90;;;;;;4936063;29;20193;-74
2021/10/01 18:35:32;;;;;;;2.90;2.50;;;13.40;99.90;;;;;;4936510;29;20456;-74
2021/10/01 18:37:58;;;;;;;2.53;2.23;;;13.40;99.90;;;;;;4934229;29;20292;-74
2021/10/01 18:40:24;;;;;;;2.43;2.10;;;13.30;99.90;;;;;;4936502;29;20177;-75
2021/10/01 18:42:50;;;;;;;4.37;2.50;;;13.20;99.90;;;;;;4934845;29;20284;-77
2021/10/01 18:45:15;;;;;;;3.87;3.03;;;13.20;99.90;;;;;;4936189;29;20434;-74
2021/10/01 18:47:42;;;;;;;9.60;3.83;;;13.10;99.90;;;;;;4935458;29;20552;-73
2021/10/01 18:50:08;;;;;;;5.60;2.83;;;13.10;99.90;;;;;;4935820;29;20185;-74
2021/10/01 18:52:34;;;;;;;3.63;2.70;;;13.10;99.90;;;;;;4936692;29;20889;-76
2021/10/01 18:54:59;;;;;;;4.37;1.83;;;13.00;99.90;;;;;;4954868;29;20455;-74
2021/10/01 18:57:27;;;;;;;6.17;2.27;;;13.00;99.90;;;;;;4955311;29;20187;-74
2021/10/01 18:59:53;;;;;;;1.73;1.63;;;12.90;99.90;;;;;;4954226;28;20204;-77